Time;durP1;ratioP1;P1;durP2;ratioP2;P2;SDS_P1;SDS_P2;PMS_P1;PMS_P2;Temp;Humidity;BMP_temperature;BMP_pressure;BME280_temperature;BME280_humidity;BME280_pressure;Samples;Min_cycle;Max_cycle;Signal;HPM_P1;HPM_P2
2021/10/15 00:02:16;;;;;;;16.35;10.40;;;7.10;99.90;;;;;;5072505;28;20039;-77
2021/10/15 00:04:42;;;;;;;18.13;11.38;;;7.10;99.90;;;;;;5077372;28;20033;-77
2021/10/15 00:07:07;;;;;;;19.48;12.18;;;7.10;99.90;;;;;;5072255;28;20432;-77
2021/10/15 00:09:33;;;;;;;18.00;11.13;;;7.20;99.90;;;;;;5077795;28;20447;-77
2021/10/15 00:11:59;;;;;;;15.40;10.35;;;7.20;99.90;;;;;;5091882;28;20057;-77
2021/10/15 00:14:24;;;;;;;18.05;10.73;;;7.20;99.90;;;;;;5091086;28;20110;-77
2021/10/15 00:16:50;;;;;;;15.15;11.15;;;7.20;99.90;;;;;;5092167;28;20032;-77
2021/10/15 00:19:16;;;;;;;18.65;10.45;;;7.20;99.90;;;;;;5107038;28;20039;-77
2021/10/15 00:21:41;;;;;;;16.48;11.25;;;7.20;99.90;;;;;;5108478;28;20016;-77
2021/10/15 00:24:08;;;;;;;16.13;10.98;;;7.20;99.90;;;;;;5077785;28;20056;-77
2021/10/15 00:26:34;;;;;;;20.63;12.27;;;7.30;99.90;;;;;;5071295;28;20048;-77
2021/10/15 00:28:59;;;;;;;16.10;12.30;;;7.30;99.90;;;;;;5071936;28;20531;-76
2021/10/15 00:31:25;;;;;;;21.50;13.43;;;7.30;99.90;;;;;;5071316;28;20020;-78
2021/10/15 00:33:50;;;;;;;24.13;12.50;;;7.20;99.90;;;;;;5082333;28;20020;-76
2021/10/15 00:36:16;;;;;;;17.35;11.52;;;7.30;99.90;;;;;;5073168;28;20032;-77
2021/10/15 00:38:42;;;;;;;17.73;12.13;;;7.30;99.90;;;;;;5076052;28;20047;-77
2021/10/15 00:41:08;;;;;;;20.67;12.95;;;7.30;99.90;;;;;;5091232;28;20362;-77
2021/10/15 00:43:34;;;;;;;19.70;12.70;;;7.20;99.90;;;;;;5087802;28;20028;-77
2021/10/15 00:46:00;;;;;;;22.42;12.23;;;7.30;99.90;;;;;;5086435;28;20024;-77
2021/10/15 00:48:25;;;;;;;15.00;11.10;;;7.20;99.90;;;;;;5089828;28;20035;-77
2021/10/15 00:50:51;;;;;;;21.38;11.95;;;7.20;99.90;;;;;;5074754;28;20429;-77
2021/10/15 00:53:17;;;;;;;17.52;11.43;;;7.30;99.90;;;;;;5074196;28;20024;-77
2021/10/15 00:55:44;;;;;;;16.55;13.07;;;7.30;99.90;;;;;;5074675;28;20032;-77
2021/10/15 00:58:09;;;;;;;20.20;11.93;;;7.30;99.90;;;;;;5090106;28;20028;-77
2021/10/15 01:00:36;;;;;;;15.98;10.50;;;7.30;99.90;;;;;;5094388;28;20107;-77
2021/10/15 01:03:04;;;;;;;15.65;11.55;;;7.30;99.90;;;;;;5093120;28;20283;-77
2021/10/15 01:05:29;;;;;;;17.95;11.30;;;7.30;99.90;;;;;;5074448;28;20036;-77
2021/10/15 01:07:56;;;;;;;18.77;11.32;;;7.30;99.90;;;;;;5074468;28;20048;-77
2021/10/15 01:10:23;;;;;;;17.30;11.20;;;7.30;99.90;;;;;;5073978;28;20070;-77
2021/10/15 01:12:50;;;;;;;16.02;9.93;;;7.30;99.90;;;;;;5074338;28;20027;-77
2021/10/15 01:15:15;;;;;;;17.15;11.25;;;7.30;99.90;;;;;;5083688;28;20079;-77
2021/10/15 01:17:41;;;;;;;15.43;9.93;;;7.30;99.90;;;;;;5075615;28;20024;-77
2021/10/15 01:20:07;;;;;;;15.48;10.02;;;7.30;99.90;;;;;;5091023;28;20035;-77
2021/10/15 01:22:33;;;;;;;22.17;10.75;;;7.30;99.90;;;;;;5095735;28;20495;-77
2021/10/15 01:24:58;;;;;;;14.88;10.25;;;7.30;99.90;;;;;;5079039;28;20053;-77
2021/10/15 01:27:24;;;;;;;21.77;12.02;;;7.20;99.90;;;;;;5075348;28;20027;-77
2021/10/15 01:29:51;;;;;;;15.73;11.48;;;7.20;99.90;;;;;;5074804;28;20497;-77
2021/10/15 01:32:17;;;;;;;20.65;13.48;;;7.20;99.90;;;;;;5075299;28;20032;-77
2021/10/15 01:34:45;;;;;;;23.60;13.52;;;7.10;99.90;;;;;;5091562;28;20204;-77
2021/10/15 01:37:11;;;;;;;19.63;12.60;;;7.10;99.90;;;;;;5094244;28;20440;-77
2021/10/15 01:39:37;;;;;;;22.90;12.88;;;7.10;99.90;;;;;;5081792;28;20038;-77
2021/10/15 01:42:03;;;;;;;20.90;13.85;;;7.10;99.90;;;;;;5079680;28;20023;-77
2021/10/15 01:44:29;;;;;;;23.15;13.43;;;7.10;99.90;;;;;;5094872;28;20020;-77
2021/10/15 01:46:55;;;;;;;24.48;14.07;;;7.00;99.90;;;;;;5094349;28;20026;-77
2021/10/15 01:49:20;;;;;;;27.58;14.88;;;7.00;99.90;;;;;;5082639;28;20021;-76
2021/10/15 01:51:46;;;;;;;26.85;15.07;;;7.00;99.90;;;;;;5073602;28;20036;-78
2021/10/15 01:54:12;;;;;;;25.58;14.52;;;6.90;99.90;;;;;;5078431;28;20081;-77
2021/10/15 01:56:37;;;;;;;25.95;16.63;;;6.90;99.90;;;;;;5074858;28;20108;-76
2021/10/15 01:59:04;;;;;;;25.48;15.35;;;6.90;99.90;;;;;;5075738;28;20382;-77
2021/10/15 02:01:30;;;;;;;25.77;16.73;;;6.90;99.90;;;;;;5073508;28;20020;-76
2021/10/15 02:03:56;;;;;;;28.98;17.98;;;6.90;99.90;;;;;;5081639;28;20541;-76
2021/10/15 02:06:22;;;;;;;27.38;17.23;;;6.90;99.90;;;;;;5088049;28;20091;-77
2021/10/15 02:08:47;;;;;;;31.25;18.98;;;6.90;99.90;;;;;;5079090;28;20016;-76
2021/10/15 02:11:13;;;;;;;29.25;17.60;;;6.90;99.90;;;;;;5093198;28;20096;-76
2021/10/15 02:13:39;;;;;;;28.20;17.10;;;6.90;99.90;;;;;;5090140;28;20435;-76
2021/10/15 02:16:05;;;;;;;32.38;18.42;;;6.90;99.90;;;;;;5077007;28;20102;-77
2021/10/15 02:18:30;;;;;;;31.60;18.45;;;6.90;99.90;;;;;;5081843;28;20051;-77
2021/10/15 02:20:56;;;;;;;32.33;18.23;;;6.90;99.90;;;;;;5078831;28;20037;-77
2021/10/15 02:23:22;;;;;;;33.83;19.85;;;6.90;99.90;;;;;;5074148;28;20469;-77
2021/10/15 02:25:48;;;;;;;29.48;18.77;;;6.90;99.90;;;;;;5072980;28;20012;-77
2021/10/15 02:28:14;;;;;;;30.58;17.23;;;6.90;99.90;;;;;;5072463;28;20026;-76
2021/10/15 02:30:39;;;;;;;29.20;17.67;;;6.90;99.90;;;;;;5072970;28;20020;-77
2021/10/15 02:33:05;;;;;;;26.75;16.52;;;6.90;99.90;;;;;;5072472;28;20059;-78
2021/10/15 02:35:31;;;;;;;28.13;18.25;;;6.90;99.90;;;;;;5073098;28;20047;-77
2021/10/15 02:38:00;;;;;;;30.13;17.25;;;6.90;99.90;;;;;;5073690;28;20060;-77
2021/10/15 02:40:27;;;;;;;24.20;15.45;;;6.90;99.90;;;;;;5073539;28;20033;-77
2021/10/15 02:42:52;;;;;;;29.15;17.58;;;6.90;99.90;;;;;;5072609;28;20028;-77
2021/10/15 02:45:18;;;;;;;26.92;16.77;;;6.90;99.90;;;;;;5090984;28;20490;-77
2021/10/15 02:47:43;;;;;;;24.83;15.93;;;6.90;99.90;;;;;;5082561;28;20066;-78
2021/10/15 02:50:09;;;;;;;27.75;16.23;;;6.90;99.90;;;;;;5083295;28;20069;-77
2021/10/15 02:52:35;;;;;;;26.63;15.60;;;6.90;99.90;;;;;;5093988;28;20489;-77
2021/10/15 02:55:01;;;;;;;23.70;15.35;;;6.90;99.90;;;;;;5109172;28;20381;-77
2021/10/15 02:57:26;;;;;;;26.60;15.93;;;6.90;99.90;;;;;;5079655;28;20474;-77
2021/10/15 02:59:52;;;;;;;25.95;15.45;;;6.90;99.90;;;;;;5073045;28;20036;-77
2021/10/15 03:02:17;;;;;;;25.23;15.90;;;6.90;99.90;;;;;;5073636;28;20478;-77
2021/10/15 03:04:43;;;;;;;22.65;14.68;;;6.90;99.90;;;;;;5085813;28;20027;-77
2021/10/15 03:07:09;;;;;;;25.23;15.02;;;6.90;99.90;;;;;;5092165;28;20119;-77
2021/10/15 03:09:35;;;;;;;22.20;13.77;;;6.90;99.90;;;;;;5080403;28;20034;-76
2021/10/15 03:12:00;;;;;;;22.50;14.45;;;6.90;99.90;;;;;;5071637;28;20364;-76
2021/10/15 03:14:26;;;;;;;24.02;15.30;;;7.00;99.90;;;;;;5072968;28;20028;-77
2021/10/15 03:16:52;;;;;;;23.75;13.40;;;7.00;99.90;;;;;;5078055;28;20059;-78
2021/10/15 03:19:17;;;;;;;23.58;14.25;;;7.00;99.90;;;;;;5071476;28;20033;-77
2021/10/15 03:21:44;;;;;;;22.52;14.43;;;7.00;99.90;;;;;;5071955;28;20024;-77
2021/10/15 03:24:09;;;;;;;22.13;14.73;;;7.00;99.90;;;;;;5084751;28;20039;-77
2021/10/15 03:26:35;;;;;;;27.63;15.95;;;7.00;99.90;;;;;;5075315;28;20425;-77
2021/10/15 03:29:00;;;;;;;25.58;15.25;;;7.00;99.90;;;;;;5083079;28;20166;-77
2021/10/15 03:31:26;;;;;;;28.17;15.43;;;7.00;99.90;;;;;;5073229;28;20035;-77
2021/10/15 03:33:52;;;;;;;29.80;15.60;;;7.00;99.90;;;;;;5079372;28;20401;-77
2021/10/15 03:36:17;;;;;;;20.75;13.65;;;7.00;99.90;;;;;;5090379;28;20477;-78
2021/10/15 03:38:43;;;;;;;24.88;15.18;;;7.00;99.90;;;;;;5081171;28;20052;-77
2021/10/15 03:41:09;;;;;;;24.50;15.02;;;7.00;99.90;;;;;;5072898;28;20482;-76
2021/10/15 03:43:34;;;;;;;22.85;13.05;;;7.00;99.90;;;;;;5075599;28;20041;-77
2021/10/15 03:46:00;;;;;;;20.75;12.55;;;7.10;99.90;;;;;;5072971;28;20031;-78
2021/10/15 03:48:25;;;;;;;22.08;13.30;;;7.00;99.90;;;;;;5075275;28;20035;-77
2021/10/15 03:50:51;;;;;;;19.40;12.68;;;7.10;99.90;;;;;;5091807;28;20367;-77
2021/10/15 03:53:17;;;;;;;18.10;12.25;;;7.10;99.90;;;;;;5090611;28;20024;-77
2021/10/15 03:55:42;;;;;;;18.83;13.00;;;7.10;99.90;;;;;;5082611;28;20036;-77
2021/10/15 03:58:08;;;;;;;18.60;12.32;;;7.00;99.90;;;;;;5088927;28;20058;-77
2021/10/15 04:00:33;;;;;;;17.40;11.85;;;7.10;99.90;;;;;;5075917;28;20081;-77
2021/10/15 04:02:59;;;;;;;17.90;11.98;;;7.10;99.90;;;;;;5103118;28;20060;-77
2021/10/15 04:05:25;;;;;;;20.42;12.73;;;7.10;99.90;;;;;;5077290;28;20024;-77
2021/10/15 04:07:50;;;;;;;18.00;11.60;;;7.10;99.90;;;;;;5072473;28;20082;-77
2021/10/15 04:10:16;;;;;;;18.27;12.43;;;7.10;99.90;;;;;;5076179;28;20028;-77
2021/10/15 04:12:42;;;;;;;17.98;11.63;;;7.10;99.90;;;;;;5075512;28;20024;-77
2021/10/15 04:15:09;;;;;;;17.20;11.40;;;7.10;99.90;;;;;;5072757;28;20029;-77
2021/10/15 04:17:34;;;;;;;18.33;11.23;;;7.10;99.90;;;;;;5074345;28;20016;-77
2021/10/15 04:20:00;;;;;;;17.60;11.70;;;7.20;99.90;;;;;;5077321;28;20055;-77
2021/10/15 04:22:26;;;;;;;16.25;10.82;;;7.20;99.90;;;;;;5107285;28;20093;-77
2021/10/15 04:24:52;;;;;;;16.20;11.27;;;7.10;99.90;;;;;;5100611;28;20056;-77
2021/10/15 04:27:17;;;;;;;15.60;10.95;;;7.20;99.90;;;;;;5078655;28;20389;-77
2021/10/15 04:29:43;;;;;;;19.55;12.35;;;7.20;99.90;;;;;;5075963;28;20119;-77
2021/10/15 04:32:09;;;;;;;17.88;11.80;;;7.20;99.90;;;;;;5076538;28;20021;-77
2021/10/15 04:34:35;;;;;;;17.50;12.02;;;7.20;99.90;;;;;;5078707;28;20067;-77
2021/10/15 04:37:00;;;;;;;18.73;11.77;;;7.20;99.90;;;;;;5078747;28;20107;-77
2021/10/15 04:39:26;;;;;;;21.80;12.65;;;7.20;99.90;;;;;;5081545;28;20047;-77
2021/10/15 04:41:52;;;;;;;19.17;12.27;;;7.20;99.90;;;;;;5076794;28;20039;-77
2021/10/15 04:44:17;;;;;;;19.50;12.40;;;7.20;99.90;;;;;;5076260;28;20102;-77
2021/10/15 04:46:43;;;;;;;17.60;11.65;;;7.20;99.90;;;;;;5074895;28;20074;-77
2021/10/15 04:49:09;;;;;;;18.92;11.32;;;7.20;99.90;;;;;;5083580;28;20035;-77
2021/10/15 04:51:35;;;;;;;17.88;11.10;;;7.20;99.90;;;;;;5083309;28;20029;-77
2021/10/15 04:54:00;;;;;;;16.60;11.57;;;7.20;99.90;;;;;;5081363;28;20036;-77
2021/10/15 04:56:26;;;;;;;18.48;11.18;;;7.20;99.90;;;;;;5112063;28;20020;-77
2021/10/15 04:58:52;;;;;;;17.42;10.55;;;7.30;99.90;;;;;;5111159;28;20081;-76
2021/10/15 05:01:17;;;;;;;14.75;9.60;;;7.20;99.90;;;;;;5092954;28;20020;-77
2021/10/15 05:03:43;;;;;;;14.93;10.75;;;7.30;99.90;;;;;;5094403;28;20031;-77
2021/10/15 05:06:09;;;;;;;24.02;11.55;;;7.30;99.90;;;;;;5082136;28;20036;-77
2021/10/15 05:08:44;;;;;;;12.45;9.15;;;7.30;99.90;;;;;;5084917;28;20107;-77
2021/10/15 05:11:10;;;;;;;14.65;10.00;;;7.30;99.90;;;;;;5082202;28;20020;-77
2021/10/15 05:13:36;;;;;;;11.63;8.73;;;7.30;99.90;;;;;;5087921;28;20077;-77
2021/10/15 05:16:02;;;;;;;14.35;9.55;;;7.30;99.90;;;;;;5081657;28;20546;-76
2021/10/15 05:18:28;;;;;;;12.32;9.35;;;7.30;99.90;;;;;;5082764;28;20127;-77
2021/10/15 05:20:54;;;;;;;14.52;9.23;;;7.40;99.90;;;;;;5084587;28;20017;-77
2021/10/15 05:23:19;;;;;;;12.48;9.35;;;7.30;99.90;;;;;;5078568;28;20070;-76
2021/10/15 05:25:45;;;;;;;13.68;8.77;;;7.40;99.90;;;;;;5075622;28;20017;-77
2021/10/15 05:28:10;;;;;;;15.27;9.48;;;7.40;99.90;;;;;;5074983;28;20363;-76
2021/10/15 05:30:36;;;;;;;13.88;7.78;;;7.40;99.90;;;;;;5075439;28;20059;-76
2021/10/15 05:33:02;;;;;;;14.68;8.88;;;7.40;99.90;;;;;;5074637;28;20024;-76
2021/10/15 05:35:28;;;;;;;14.68;8.57;;;7.40;99.90;;;;;;5071712;28;20024;-76
2021/10/15 05:37:53;;;;;;;12.05;8.55;;;7.40;99.90;;;;;;5094295;28;20528;-76
2021/10/15 05:40:19;;;;;;;12.68;8.90;;;7.50;99.90;;;;;;5094611;28;20588;-75
2021/10/15 05:42:46;;;;;;;14.40;9.93;;;7.50;99.90;;;;;;5093802;28;20458;-76
2021/10/15 05:45:12;;;;;;;13.65;8.93;;;7.50;99.90;;;;;;5075266;28;20474;-75
2021/10/15 05:47:38;;;;;;;15.27;9.93;;;7.50;99.90;;;;;;5073091;28;20067;-77
2021/10/15 05:50:04;;;;;;;18.83;11.57;;;7.50;99.90;;;;;;5071971;28;20235;-76
2021/10/15 05:52:35;;;;;;;13.75;9.80;;;7.50;99.90;;;;;;5072803;28;20024;-76
2021/10/15 05:55:39;;;;;;;16.80;10.20;;;7.50;99.90;;;;;;5074910;28;20020;-75
2021/10/15 06:00:37;;;;;;;14.40;10.05;;;7.60;99.90;;;;;;5078774;28;20062;-75
2021/10/15 06:03:04;;;;;;;15.02;9.90;;;7.60;99.90;;;;;;5075528;28;20031;-77
2021/10/15 06:16:03;;;;;;;13.88;9.40;;;7.70;99.90;;;;;;5081959;28;20485;-76
2021/10/15 06:18:37;;;;;;;12.43;8.95;;;7.70;99.90;;;;;;5075365;28;20049;-75
2021/10/15 06:21:03;;;;;;;13.57;8.98;;;7.70;99.90;;;;;;5085479;28;20542;-75
2021/10/15 06:23:30;;;;;;;15.00;9.13;;;7.70;99.90;;;;;;5088244;28;20095;-75
2021/10/15 06:25:56;;;;;;;17.33;10.50;;;7.80;99.90;;;;;;5078864;28;20071;-75
2021/10/15 06:28:22;;;;;;;14.98;10.30;;;7.80;99.90;;;;;;5078440;28;20023;-76
2021/10/15 06:30:49;;;;;;;15.95;9.52;;;7.80;99.90;;;;;;5077685;28;20393;-77
2021/10/15 06:33:15;;;;;;;14.63;9.77;;;7.80;99.90;;;;;;5085425;28;20029;-76
2021/10/15 06:35:41;;;;;;;16.25;9.68;;;7.90;99.90;;;;;;5077409;28;20021;-76
2021/10/15 06:38:07;;;;;;;14.75;9.98;;;7.90;99.90;;;;;;5079375;28;20111;-76
2021/10/15 06:40:34;;;;;;;14.13;9.80;;;7.90;99.90;;;;;;5083088;28;20044;-75
2021/10/15 06:43:00;;;;;;;14.57;8.63;;;7.90;99.90;;;;;;5082585;28;20498;-75
2021/10/15 06:45:26;;;;;;;11.40;8.30;;;8.00;99.90;;;;;;5082558;28;20055;-75
2021/10/15 06:47:51;;;;;;;13.23;8.25;;;8.00;99.90;;;;;;5080735;28;20111;-77
2021/10/15 06:50:17;;;;;;;14.80;8.40;;;8.00;99.90;;;;;;5077154;28;20024;-75
2021/10/15 06:52:52;;;;;;;11.95;8.65;;;8.10;99.90;;;;;;5079687;28;20036;-76
2021/10/15 06:55:20;;;;;;;15.40;8.70;;;8.20;99.90;;;;;;5080714;28;20027;-76
2021/10/15 06:57:47;;;;;;;14.18;9.05;;;8.20;99.90;;;;;;5078266;28;20024;-75
2021/10/15 07:00:14;;;;;;;14.30;8.38;;;8.20;99.90;;;;;;5077617;28;20038;-77
2021/10/15 07:02:40;;;;;;;11.50;8.88;;;8.20;99.90;;;;;;5084150;28;20028;-76
2021/10/15 07:05:06;;;;;;;15.38;10.23;;;8.30;99.90;;;;;;5073216;28;20032;-76
2021/10/15 07:07:32;;;;;;;15.23;9.63;;;8.30;99.90;;;;;;5074541;28;20389;-76
2021/10/15 07:10:00;;;;;;;13.32;10.05;;;8.30;99.90;;;;;;5081433;28;20013;-76
2021/10/15 07:12:27;;;;;;;13.40;9.40;;;8.40;99.90;;;;;;5085887;28;20020;-75
2021/10/15 07:14:53;;;;;;;12.95;9.07;;;8.40;99.90;;;;;;5072836;28;20039;-76
2021/10/15 07:17:20;;;;;;;10.32;7.25;;;8.40;99.90;;;;;;5071626;28;20819;-75
2021/10/15 07:19:46;;;;;;;11.02;7.50;;;8.40;99.90;;;;;;5088035;28;20465;-75
2021/10/15 07:22:11;;;;;;;12.38;7.28;;;8.40;99.90;;;;;;5089335;28;20039;-75
2021/10/15 07:24:37;;;;;;;9.45;6.63;;;8.50;99.90;;;;;;5080426;28;20024;-76
2021/10/15 07:27:03;;;;;;;10.40;7.13;;;8.50;99.90;;;;;;5069246;28;20074;-75
2021/10/15 07:29:29;;;;;;;10.10;6.90;;;8.50;99.90;;;;;;5068265;28;20017;-76
2021/10/15 07:31:55;;;;;;;10.50;7.22;;;8.50;99.90;;;;;;5069227;28;20390;-76
2021/10/15 07:34:20;;;;;;;11.30;7.68;;;8.60;99.90;;;;;;5073916;28;20100;-75
2021/10/15 07:36:46;;;;;;;8.73;6.55;;;8.70;99.90;;;;;;5069211;28;20541;-75
2021/10/15 07:39:12;;;;;;;8.18;6.85;;;8.70;99.90;;;;;;5063891;28;20051;-79
2021/10/15 07:41:44;;;;;;;8.38;6.43;;;8.70;99.90;;;;;;5069692;28;20040;-76
2021/10/15 07:44:13;;;;;;;9.15;7.55;;;8.70;99.90;;;;;;5088268;28;20025;-76
2021/10/15 07:46:43;;;;;;;10.77;6.82;;;8.80;99.90;;;;;;5070624;28;20013;-76
2021/10/15 07:49:09;;;;;;;11.00;6.80;;;8.80;99.90;;;;;;5069912;28;20020;-76
2021/10/15 07:51:35;;;;;;;9.23;6.68;;;8.80;99.90;;;;;;5068000;28;20017;-76
2021/10/15 07:54:01;;;;;;;11.85;7.55;;;8.80;99.90;;;;;;5070117;28;20085;-75
2021/10/15 07:56:26;;;;;;;8.90;6.22;;;8.90;99.90;;;;;;5070683;28;20029;-76
2021/10/15 07:58:52;;;;;;;12.38;7.50;;;8.90;99.90;;;;;;5075858;28;20075;-75
2021/10/15 08:01:18;;;;;;;11.55;7.18;;;9.00;99.90;;;;;;5088833;28;20088;-76
2021/10/15 08:03:43;;;;;;;10.48;6.75;;;9.00;99.90;;;;;;5088820;28;20028;-75
2021/10/15 08:06:09;;;;;;;9.88;6.22;;;9.00;99.90;;;;;;5090205;28;20095;-75
2021/10/15 08:08:35;;;;;;;12.05;6.63;;;9.10;99.90;;;;;;5090610;28;20135;-75
2021/10/15 08:11:01;;;;;;;8.65;6.43;;;9.10;99.90;;;;;;5089378;28;20028;-75
2021/10/15 08:13:27;;;;;;;8.50;6.10;;;9.20;99.90;;;;;;5072740;28;20561;-75
2021/10/15 08:15:52;;;;;;;7.55;6.05;;;9.20;99.90;;;;;;5072415;28;20095;-76
2021/10/15 08:18:19;;;;;;;8.30;5.85;;;9.30;99.90;;;;;;5070942;28;20051;-75
2021/10/15 08:20:44;;;;;;;8.13;5.90;;;9.30;99.90;;;;;;5071320;28;20028;-76
2021/10/15 08:23:10;;;;;;;7.82;5.60;;;9.30;99.90;;;;;;5070716;28;20488;-75
2021/10/15 08:25:39;;;;;;;9.02;5.78;;;9.40;99.90;;;;;;5073643;28;20074;-76
2021/10/15 08:28:05;;;;;;;8.60;5.90;;;9.40;99.90;;;;;;5070733;28;20020;-75
2021/10/15 08:30:31;;;;;;;7.97;5.53;;;9.50;99.90;;;;;;5071889;28;20027;-76
2021/10/15 08:32:57;;;;;;;8.15;5.47;;;9.50;99.90;;;;;;5091127;28;20017;-76
2021/10/15 08:35:23;;;;;;;7.80;5.28;;;9.60;99.90;;;;;;5084060;28;20029;-75
2021/10/15 08:37:50;;;;;;;8.05;5.65;;;9.60;99.90;;;;;;5072264;28;20073;-76
2021/10/15 08:40:16;;;;;;;8.60;5.88;;;9.70;99.90;;;;;;5071742;28;20519;-76
2021/10/15 08:42:52;;;;;;;7.85;5.43;;;9.80;99.90;;;;;;5072334;28;20029;-76
2021/10/15 08:45:27;;;;;;;8.98;5.57;;;9.70;99.90;;;;;;5071900;28;20028;-76
2021/10/15 08:47:54;;;;;;;6.90;5.03;;;9.80;99.90;;;;;;5072287;28;20070;-75
2021/10/15 08:50:21;;;;;;;8.73;5.97;;;9.80;99.90;;;;;;5080347;28;20066;-75
2021/10/15 08:52:47;;;;;;;7.78;5.82;;;9.90;99.90;;;;;;5071153;28;20163;-76
2021/10/15 08:55:13;;;;;;;8.15;5.43;;;9.90;99.90;;;;;;5074680;28;20119;-76
2021/10/15 08:57:38;;;;;;;8.63;5.68;;;9.90;99.90;;;;;;5073262;28;20028;-75
2021/10/15 09:00:22;;;;;;;9.52;5.55;;;10.00;99.90;;;;;;5070184;28;20485;-75
2021/10/15 09:03:22;;;;;;;7.80;5.03;;;10.00;99.90;;;;;;5072943;28;20051;-76
2021/10/15 09:05:54;;;;;;;9.75;5.13;;;10.00;99.90;;;;;;5076740;28;20023;-75
2021/10/15 09:08:20;;;;;;;9.88;5.80;;;10.10;99.90;;;;;;5073036;28;20024;-76
2021/10/15 09:10:46;;;;;;;7.97;5.30;;;10.30;99.90;;;;;;5074063;28;20023;-75
2021/10/15 09:16:54;;;;;;;5.95;5.10;;;10.40;99.90;;;;;;5077012;28;20440;-75
2021/10/15 09:19:33;;;;;;;7.43;5.45;;;10.40;99.90;;;;;;5071659;28;20036;-76
2021/10/15 09:22:18;;;;;;;8.60;5.22;;;10.50;99.90;;;;;;5076990;28;20039;-75
2021/10/15 09:24:52;;;;;;;8.73;5.60;;;10.60;99.90;;;;;;5073032;28;20070;-74
2021/10/15 09:27:26;;;;;;;7.10;4.72;;;10.50;99.90;;;;;;5074390;28;20025;-75
2021/10/15 09:30:09;;;;;;;6.75;4.72;;;10.50;99.90;;;;;;5076370;28;20543;-76
2021/10/15 09:32:41;;;;;;;8.02;5.70;;;10.50;99.90;;;;;;5074024;28;20029;-75
2021/10/15 09:35:09;;;;;;;6.82;5.40;;;10.50;99.90;;;;;;5076036;28;20500;-75
2021/10/15 09:37:37;;;;;;;7.32;5.55;;;10.60;99.90;;;;;;5074588;28;20478;-76
2021/10/15 09:40:10;;;;;;;7.00;4.35;;;10.70;99.90;;;;;;5072487;28;20049;-75
2021/10/15 09:42:42;;;;;;;5.97;4.82;;;10.70;99.90;;;;;;5075016;28;20551;-75
2021/10/15 09:45:23;;;;;;;7.33;4.43;;;10.70;99.90;;;;;;5074947;28;20039;-75
2021/10/15 09:47:56;;;;;;;7.10;3.78;;;10.70;99.90;;;;;;5074039;28;20020;-75
2021/10/15 09:50:31;;;;;;;6.45;3.85;;;10.70;99.90;;;;;;5073884;28;20497;-74
2021/10/15 09:52:58;;;;;;;6.88;4.20;;;10.60;99.90;;;;;;5084061;28;20028;-75
2021/10/15 09:55:31;;;;;;;6.78;4.03;;;10.60;99.90;;;;;;5071784;28;20036;-74
2021/10/15 09:58:12;;;;;;;4.57;3.67;;;10.70;99.90;;;;;;5078235;28;20020;-76
2021/10/15 10:00:40;;;;;;;4.80;3.63;;;10.80;99.90;;;;;;5088110;28;20481;-76
2021/10/15 10:03:08;;;;;;;6.68;3.83;;;10.90;99.90;;;;;;5084662;28;20046;-76
2021/10/15 10:05:33;;;;;;;5.35;4.05;;;10.90;99.90;;;;;;5077995;28;20551;-74
2021/10/15 10:08:01;;;;;;;7.13;4.30;;;10.90;99.90;;;;;;5075265;28;20033;-74
2021/10/15 10:10:33;;;;;;;6.43;4.47;;;11.00;99.90;;;;;;5073941;28;20048;-74
2021/10/15 10:12:59;;;;;;;4.60;4.05;;;10.90;99.90;;;;;;5072184;28;20067;-75
2021/10/15 10:15:41;;;;;;;6.28;4.47;;;10.90;99.90;;;;;;5072467;28;20086;-74
2021/10/15 10:18:18;;;;;;;86.70;17.08;;;11.00;99.90;;;;;;5071783;28;20386;-74
2021/10/15 10:20:58;;;;;;;4.25;3.55;;;11.00;99.90;;;;;;5074233;28;20040;-74
2021/10/15 10:23:31;;;;;;;7.28;4.13;;;11.20;99.90;;;;;;5079248;28;20436;-76
2021/10/15 10:25:59;;;;;;;4.57;3.50;;;11.20;99.90;;;;;;5089686;28;20066;-75
2021/10/15 10:28:27;;;;;;;5.75;4.28;;;11.30;99.90;;;;;;5089547;28;20028;-75
2021/10/15 10:31:02;;;;;;;4.70;3.67;;;11.40;99.90;;;;;;5082784;28;20040;-74
2021/10/15 10:33:28;;;;;;;5.07;3.35;;;11.50;99.90;;;;;;5087733;28;20020;-75
2021/10/15 10:36:08;;;;;;;6.68;3.55;;;11.60;99.90;;;;;;5088644;28;20116;-77
2021/10/15 10:38:34;;;;;;;4.75;3.70;;;11.70;99.90;;;;;;5092339;28;20069;-75
2021/10/15 10:41:00;;;;;;;3.75;3.00;;;11.80;99.90;;;;;;5089912;28;20031;-76
2021/10/15 10:43:49;;;;;;;7.60;4.40;;;11.90;99.90;;;;;;5072903;28;20123;-76
2021/10/15 10:46:21;;;;;;;4.20;3.65;;;11.90;99.90;;;;;;5064112;28;20029;-77
2021/10/15 10:48:47;;;;;;;7.07;5.15;;;12.00;99.90;;;;;;5063377;28;20024;-76
2021/10/15 10:51:23;;;;;;;5.22;4.22;;;11.90;99.90;;;;;;5071438;28;20025;-77
2021/10/15 10:54:00;;;;;;;4.13;3.60;;;12.10;99.90;;;;;;5083156;28;20024;-77
2021/10/15 10:56:38;;;;;;;4.65;3.70;;;12.10;99.90;;;;;;5072610;28;20033;-75
2021/10/15 10:59:19;;;;;;;5.20;4.00;;;12.00;99.90;;;;;;5069414;28;20036;-75
2021/10/15 11:01:50;;;;;;;4.45;3.47;;;11.90;99.90;;;;;;5075984;28;20111;-75
2021/10/15 11:04:45;;;;;;;5.20;4.53;;;12.00;99.90;;;;;;5069618;28;20020;-75
2021/10/15 11:07:20;;;;;;;6.28;4.43;;;12.00;99.90;;;;;;5065153;28;20029;-75
2021/10/15 11:10:02;;;;;;;6.82;4.43;;;12.10;99.90;;;;;;5070327;28;20071;-75
2021/10/15 11:12:27;;;;;;;6.43;4.72;;;12.10;99.90;;;;;;5071745;28;20024;-75
2021/10/15 11:15:02;;;;;;;6.68;4.95;;;12.00;99.90;;;;;;5069310;28;20037;-74
2021/10/15 11:17:36;;;;;;;6.20;4.43;;;12.00;99.90;;;;;;5070493;28;20386;-75
2021/10/15 11:20:07;;;;;;;6.18;4.43;;;12.00;99.90;;;;;;5069337;28;20094;-76
2021/10/15 11:22:33;;;;;;;5.20;4.20;;;12.00;99.90;;;;;;5071366;28;20509;-76
2021/10/15 11:24:59;;;;;;;6.32;5.10;;;11.90;99.90;;;;;;5069414;28;20041;-75
2021/10/15 11:27:25;;;;;;;8.18;4.30;;;11.90;99.90;;;;;;5067426;28;20024;-74
2021/10/15 11:29:57;;;;;;;5.57;4.50;;;11.90;99.90;;;;;;5070441;28;20505;-75
2021/10/15 11:32:29;;;;;;;5.97;4.05;;;11.90;99.90;;;;;;5074823;28;20028;-74
2021/10/15 11:35:07;;;;;;;6.80;4.22;;;12.00;99.90;;;;;;5079297;28;20028;-75
2021/10/15 11:37:44;;;;;;;9.05;5.20;;;12.10;99.90;;;;;;5069951;28;20450;-76
2021/10/15 11:40:23;;;;;;;8.23;4.35;;;12.10;99.90;;;;;;5072312;28;20060;-74
2021/10/15 11:42:50;;;;;;;6.82;4.50;;;12.10;99.90;;;;;;5071294;28;20032;-74
2021/10/15 11:45:26;;;;;;;6.10;4.28;;;12.20;99.90;;;;;;5070853;28;20037;-75
2021/10/15 11:48:07;;;;;;;6.75;4.57;;;12.20;99.90;;;;;;5069740;28;20513;-74
2021/10/15 11:50:51;;;;;;;6.60;4.15;;;12.20;99.90;;;;;;5067835;28;20086;-74
2021/10/15 11:53:21;;;;;;;4.70;3.88;;;12.20;99.90;;;;;;5072197;28;20012;-74
2021/10/15 11:55:48;;;;;;;5.03;4.15;;;12.10;99.90;;;;;;5070999;28;20478;-74
2021/10/15 11:58:23;;;;;;;6.30;3.70;;;12.20;99.90;;;;;;5069047;28;20428;-74
2021/10/15 12:01:21;;;;;;;6.30;4.10;;;12.20;99.90;;;;;;5070168;28;20044;-74
2021/10/15 12:03:51;;;;;;;8.80;4.28;;;12.20;99.90;;;;;;5070961;28;20029;-75
2021/10/15 12:06:31;;;;;;;5.88;4.03;;;12.10;99.90;;;;;;5075157;28;20478;-74
2021/10/15 12:09:03;;;;;;;6.97;4.28;;;12.10;99.90;;;;;;5067540;28;20044;-74
2021/10/15 12:11:44;;;;;;;7.20;5.18;;;12.10;99.90;;;;;;5069770;28;20456;-74
2021/10/15 12:14:30;;;;;;;6.40;4.38;;;12.10;99.90;;;;;;5077743;28;20027;-74
2021/10/15 12:17:06;;;;;;;4.72;3.90;;;12.10;99.90;;;;;;5087976;28;20024;-75
2021/10/15 12:19:39;;;;;;;7.13;3.80;;;12.20;99.90;;;;;;5080835;28;20504;-74
2021/10/15 12:22:11;;;;;;;6.00;3.60;;;12.10;99.90;;;;;;5069088;28;20399;-75
2021/10/15 12:24:41;;;;;;;5.10;3.95;;;12.00;99.90;;;;;;5070604;28;20028;-76
2021/10/15 12:27:10;;;;;;;4.32;3.80;;;11.90;99.90;;;;;;5066971;28;20028;-75
2021/10/15 12:29:41;;;;;;;6.55;5.30;;;11.80;99.90;;;;;;5070665;28;20059;-75
2021/10/15 12:32:22;;;;;;;15.20;9.05;;;11.70;99.90;;;;;;5068071;28;20021;-75
2021/10/15 12:35:01;;;;;;;9.68;6.78;;;11.70;99.90;;;;;;5070747;28;20022;-75
2021/10/15 12:37:35;;;;;;;6.60;4.90;;;11.70;99.90;;;;;;5071154;28;20051;-76
2021/10/15 12:40:21;;;;;;;9.95;4.85;;;11.60;99.90;;;;;;5068236;28;20056;-74
2021/10/15 12:42:56;;;;;;;8.40;5.30;;;11.50;99.90;;;;;;5087064;28;20128;-74
2021/10/15 12:45:34;;;;;;;7.85;4.60;;;11.50;99.90;;;;;;5094646;28;20089;-74
2021/10/15 12:48:16;;;;;;;8.48;5.18;;;11.40;99.90;;;;;;5091370;28;20042;-74
2021/10/15 12:51:03;;;;;;;5.50;4.68;;;11.40;99.90;;;;;;5088482;28;20123;-73
2021/10/15 12:53:39;;;;;;;7.70;5.13;;;11.30;99.90;;;;;;5074747;28;20033;-74
2021/10/15 12:56:15;;;;;;;15.85;6.78;;;11.30;99.90;;;;;;5073453;28;20041;-74
2021/10/15 12:58:54;;;;;;;12.48;7.72;;;11.30;99.90;;;;;;5074137;28;20052;-75
2021/10/15 13:01:28;;;;;;;11.90;5.68;;;11.30;99.90;;;;;;5089723;28;20032;-75
2021/10/15 13:03:55;;;;;;;11.85;6.68;;;11.30;99.90;;;;;;5089138;28;20031;-74
2021/10/15 13:06:21;;;;;;;7.97;5.50;;;11.30;99.90;;;;;;5068769;28;20044;-78
2021/10/15 13:08:49;;;;;;;12.63;5.88;;;11.20;99.90;;;;;;5081922;28;20466;-77